Time;durP1;ratioP1;P1;durP2;ratioP2;P2;SDS_P1;SDS_P2;PMS_P1;PMS_P2;Temp;Humidity;BMP_temperature;BMP_pressure;BME280_temperature;BME280_humidity;BME280_pressure;Samples;Min_cycle;Max_cycle;Signal;HPM_P1;HPM_P2
2023/10/05 00:03:44;;;;;;;15.23;4.15;;;17.10;99.90;;;;;;5064718;28;20072;-65
2023/10/05 00:06:16;;;;;;;14.43;3.80;;;17.10;99.90;;;;;;5087507;28;20086;-65
2023/10/05 00:08:44;;;;;;;11.35;3.08;;;17.10;99.90;;;;;;5088072;28;20066;-65
2023/10/05 00:11:22;;;;;;;18.17;4.60;;;17.00;99.90;;;;;;5078789;28;20021;-65
2023/10/05 00:13:50;;;;;;;18.30;4.45;;;17.00;99.90;;;;;;5065779;28;20035;-65
2023/10/05 00:16:20;;;;;;;16.67;3.35;;;16.90;99.90;;;;;;5085956;28;20033;-64
2023/10/05 00:18:47;;;;;;;16.73;4.05;;;16.90;99.90;;;;;;5078283;28;20085;-66
2023/10/05 00:21:18;;;;;;;16.63;4.43;;;16.90;99.90;;;;;;5076128;28;20099;-66
2023/10/05 00:23:43;;;;;;;9.77;3.35;;;16.90;99.90;;;;;;5082325;28;20028;-65
2023/10/05 00:26:09;;;;;;;15.02;3.17;;;17.00;99.90;;;;;;5075267;28;20384;-66
2023/10/05 00:28:35;;;;;;;15.15;3.63;;;16.90;99.90;;;;;;5077783;28;20483;-66
2023/10/05 00:31:03;;;;;;;17.63;3.55;;;16.90;99.90;;;;;;5077825;28;20044;-66
2023/10/05 00:33:28;;;;;;;15.60;3.63;;;16.90;99.90;;;;;;5079800;28;20028;-65
2023/10/05 00:35:54;;;;;;;12.23;3.03;;;16.90;99.90;;;;;;5082774;28;20044;-66
2023/10/05 00:38:20;;;;;;;15.80;3.42;;;17.00;99.90;;;;;;5076607;28;20028;-64
2023/10/05 00:45:50;;;;;;;15.68;3.35;;;16.90;99.90;;;;;;5090746;28;20075;-65
2023/10/05 00:48:29;;;;;;;14.40;3.60;;;16.90;99.90;;;;;;5092505;28;20024;-65
2023/10/05 00:51:00;;;;;;;14.48;3.42;;;16.90;99.90;;;;;;5083032;28;20071;-67
2023/10/05 00:53:30;;;;;;;15.68;3.38;;;16.80;99.90;;;;;;5078265;28;20032;-65
2023/10/05 00:56:11;;;;;;;14.98;3.30;;;16.70;99.90;;;;;;5075681;28;20460;-65
2023/10/05 00:58:48;;;;;;;17.92;3.28;;;16.70;99.90;;;;;;5076519;28;20025;-65
2023/10/05 01:01:27;;;;;;;18.77;3.15;;;16.60;99.90;;;;;;5076281;28;20495;-66
2023/10/05 01:06:48;;;;;;;16.30;3.05;;;16.60;99.90;;;;;;5054488;28;20094;-66
2023/10/05 01:09:39;;;;;;;15.23;3.22;;;16.50;99.90;;;;;;5074567;28;20047;-67
2023/10/05 01:14:50;;;;;;;17.30;3.60;;;16.50;99.90;;;;;;5092381;28;20424;-65
2023/10/05 01:17:25;;;;;;;14.77;3.25;;;16.50;99.90;;;;;;5091270;28;20063;-65
2023/10/05 01:19:56;;;;;;;14.63;2.80;;;16.50;99.90;;;;;;5061247;28;20067;-65
2023/10/05 01:22:23;;;;;;;12.05;2.55;;;16.60;99.90;;;;;;5081741;28;20028;-66
2023/10/05 01:24:50;;;;;;;19.25;3.42;;;16.60;99.90;;;;;;5081709;28;20488;-66
2023/10/05 01:27:17;;;;;;;17.70;3.05;;;16.70;99.90;;;;;;5076623;28;20025;-67
2023/10/05 01:29:43;;;;;;;15.27;3.58;;;16.70;99.90;;;;;;5077022;28;20032;-67
2023/10/05 01:32:10;;;;;;;15.57;3.15;;;16.80;99.90;;;;;;5075820;28;20063;-66
2023/10/05 01:34:36;;;;;;;17.92;3.13;;;16.80;99.90;;;;;;5075672;28;20024;-66
2023/10/05 01:37:03;;;;;;;14.73;2.88;;;16.80;99.90;;;;;;5075583;28;20085;-66
2023/10/05 01:39:34;;;;;;;13.05;2.70;;;16.80;99.90;;;;;;5088407;28;20052;-67
2023/10/05 01:42:00;;;;;;;10.83;2.90;;;16.70;99.90;;;;;;5081401;28;20029;-64
2023/10/05 01:44:25;;;;;;;12.55;2.67;;;16.60;99.90;;;;;;5075314;28;20096;-67
2023/10/05 01:46:55;;;;;;;12.55;2.50;;;16.60;99.90;;;;;;5075587;28;20029;-67
2023/10/05 01:49:21;;;;;;;13.48;3.65;;;16.50;99.90;;;;;;5076742;28;20103;-67
2023/10/05 01:51:48;;;;;;;19.52;3.15;;;16.60;99.90;;;;;;5075897;28;20040;-65
2023/10/05 01:54:15;;;;;;;12.20;2.80;;;16.50;99.90;;;;;;5075393;28;20031;-65
2023/10/05 01:56:44;;;;;;;11.55;3.42;;;16.50;99.90;;;;;;5075258;28;20108;-66
2023/10/05 01:59:12;;;;;;;15.77;3.20;;;16.40;99.90;;;;;;5073345;28;20044;-65
2023/10/05 02:01:40;;;;;;;10.65;2.60;;;16.40;99.90;;;;;;5074152;28;20052;-65
2023/10/05 02:04:07;;;;;;;15.45;3.83;;;16.40;99.90;;;;;;5075126;28;20021;-65
2023/10/05 02:06:40;;;;;;;15.30;3.42;;;16.40;99.90;;;;;;5075092;28;20020;-65
2023/10/05 02:09:08;;;;;;;15.13;3.20;;;16.40;99.90;;;;;;5075009;28;20366;-66
2023/10/05 02:11:35;;;;;;;16.63;3.08;;;16.40;99.90;;;;;;5076748;28;20078;-66
2023/10/05 02:14:03;;;;;;;12.35;2.97;;;16.40;99.90;;;;;;5074428;28;20369;-66
2023/10/05 02:16:30;;;;;;;14.90;2.80;;;16.40;99.90;;;;;;5074639;28;20036;-64
2023/10/05 02:18:56;;;;;;;12.13;2.50;;;16.40;99.90;;;;;;5074332;28;20051;-67
2023/10/05 02:21:36;;;;;;;13.77;3.25;;;16.40;99.90;;;;;;5076099;28;20059;-66
2023/10/05 02:24:18;;;;;;;13.82;2.70;;;16.40;99.90;;;;;;5061782;28;20027;-67
2023/10/05 02:29:29;;;;;;;13.85;2.75;;;16.30;99.90;;;;;;5076516;28;20043;-66
2023/10/05 02:32:09;;;;;;;11.30;2.90;;;16.30;99.90;;;;;;5060251;28;20029;-66
2023/10/05 02:37:01;;;;;;;11.68;2.55;;;16.30;99.90;;;;;;5074041;28;20111;-66
2023/10/05 02:39:27;;;;;;;14.18;3.20;;;16.30;99.90;;;;;;5087119;28;20036;-64
2023/10/05 02:41:54;;;;;;;18.05;3.00;;;16.30;99.90;;;;;;5090570;28;20016;-65
2023/10/05 02:44:29;;;;;;;12.25;2.67;;;16.30;99.90;;;;;;5090454;28;20027;-65
2023/10/05 02:46:55;;;;;;;13.15;3.15;;;16.30;99.90;;;;;;5090290;28;20043;-65
2023/10/05 02:49:25;;;;;;;14.20;3.53;;;16.20;99.90;;;;;;5088454;28;20036;-66
2023/10/05 02:51:54;;;;;;;17.73;3.25;;;16.30;99.90;;;;;;5059168;28;20374;-65
2023/10/05 02:54:22;;;;;;;11.98;2.83;;;16.20;99.90;;;;;;5074261;28;20047;-65
2023/10/05 02:56:48;;;;;;;15.00;2.95;;;16.20;99.90;;;;;;5073893;28;20384;-66
2023/10/05 02:59:15;;;;;;;14.02;3.00;;;16.20;99.90;;;;;;5074409;28;20041;-67
2023/10/05 03:01:44;;;;;;;16.75;3.30;;;16.10;99.90;;;;;;5075338;28;20388;-66
2023/10/05 03:06:40;;;;;;;16.58;2.72;;;16.10;99.90;;;;;;5072532;28;20119;-66
2023/10/05 03:09:09;;;;;;;13.13;2.92;;;16.10;99.90;;;;;;5074167;28;20146;-66
2023/10/05 03:11:41;;;;;;;17.77;3.50;;;16.10;99.90;;;;;;5075940;28;20039;-66
2023/10/05 03:14:11;;;;;;;15.13;2.75;;;16.10;99.90;;;;;;5073786;28;20467;-66
2023/10/05 03:16:44;;;;;;;12.90;3.33;;;16.00;99.90;;;;;;5073647;28;20101;-66
2023/10/05 03:19:20;;;;;;;15.23;2.80;;;16.00;99.90;;;;;;5073849;28;20036;-66
2023/10/05 03:21:50;;;;;;;15.38;2.85;;;16.00;99.90;;;;;;5074797;28;20385;-65
2023/10/05 03:24:23;;;;;;;10.90;2.72;;;16.00;99.90;;;;;;5076042;28;20032;-66
2023/10/05 03:26:54;;;;;;;15.23;2.55;;;16.00;99.90;;;;;;5085900;28;20028;-67
2023/10/05 03:29:21;;;;;;;13.25;2.58;;;16.00;99.90;;;;;;5073074;28;20123;-65
2023/10/05 03:31:55;;;;;;;15.98;2.80;;;16.10;99.90;;;;;;5074569;28;20122;-67
2023/10/05 03:34:26;;;;;;;14.68;2.80;;;16.10;99.90;;;;;;5085759;28;20156;-66
2023/10/05 03:36:52;;;;;;;8.95;2.70;;;16.10;99.90;;;;;;5082128;28;20392;-66
2023/10/05 03:39:18;;;;;;;15.45;2.70;;;16.10;99.90;;;;;;5076680;28;20028;-66
2023/10/05 03:41:44;;;;;;;13.38;2.65;;;16.20;99.90;;;;;;5091274;28;20238;-65
2023/10/05 03:44:15;;;;;;;17.85;2.95;;;16.20;99.90;;;;;;5089723;28;20054;-65
2023/10/05 03:46:42;;;;;;;10.88;2.40;;;16.20;99.90;;;;;;5083568;28;20130;-66
2023/10/05 03:49:07;;;;;;;12.50;2.80;;;16.30;99.90;;;;;;5092111;28;20028;-66
2023/10/05 03:51:37;;;;;;;10.70;2.47;;;16.30;99.90;;;;;;5078682;28;20044;-67
2023/10/05 03:54:03;;;;;;;17.67;2.47;;;16.30;99.90;;;;;;5088622;28;20032;-67
2023/10/05 03:56:29;;;;;;;15.95;2.50;;;16.30;99.90;;;;;;5085322;28;20376;-66
2023/10/05 03:58:55;;;;;;;13.05;3.08;;;16.30;99.90;;;;;;5080683;28;20062;-65
2023/10/05 04:01:22;;;;;;;12.82;2.75;;;16.30;99.90;;;;;;5092356;28;20455;-65
2023/10/05 04:03:50;;;;;;;13.52;3.20;;;16.30;99.90;;;;;;5080737;28;20077;-66
2023/10/05 04:06:28;;;;;;;19.77;3.88;;;16.30;99.90;;;;;;5087117;28;20025;-66
2023/10/05 04:09:00;;;;;;;12.60;3.10;;;16.30;99.90;;;;;;5089933;28;20081;-67
2023/10/05 04:11:26;;;;;;;15.73;3.67;;;16.20;99.90;;;;;;5079048;28;20100;-66
2023/10/05 04:13:55;;;;;;;16.23;3.58;;;16.20;99.90;;;;;;5089821;28;20041;-65
2023/10/05 04:16:26;;;;;;;14.20;3.33;;;16.20;99.90;;;;;;5084833;28;20056;-66
2023/10/05 04:18:55;;;;;;;16.80;2.90;;;16.20;99.90;;;;;;5081574;28;20044;-65
2023/10/05 04:21:24;;;;;;;15.60;3.83;;;16.20;99.90;;;;;;5084001;28;20020;-65
2023/10/05 04:23:50;;;;;;;17.15;4.15;;;16.20;99.90;;;;;;5083774;28;20103;-66
2023/10/05 04:26:19;;;;;;;16.85;3.88;;;16.20;99.90;;;;;;5079811;28;20103;-66
2023/10/05 04:28:57;;;;;;;18.05;4.25;;;16.20;99.90;;;;;;5079876;28;20021;-66
2023/10/05 04:31:26;;;;;;;15.25;3.78;;;16.10;99.90;;;;;;5087220;28;20031;-66
2023/10/05 04:33:55;;;;;;;15.02;3.70;;;16.20;99.90;;;;;;5082367;28;20066;-66
2023/10/05 04:36:24;;;;;;;17.80;3.67;;;16.10;99.90;;;;;;5081710;28;20039;-66
2023/10/05 04:38:54;;;;;;;19.33;4.03;;;16.10;99.90;;;;;;5084640;28;20024;-66
2023/10/05 04:41:39;;;;;;;14.80;3.63;;;16.10;99.90;;;;;;5085662;28;20033;-66
2023/10/05 04:44:11;;;;;;;13.93;2.85;;;16.10;99.90;;;;;;5087026;28;20112;-66
2023/10/05 04:46:37;;;;;;;13.82;3.38;;;16.10;99.90;;;;;;5083219;28;20053;-66
2023/10/05 04:49:12;;;;;;;16.40;3.33;;;16.10;99.90;;;;;;5088906;28;20090;-66
2023/10/05 04:51:40;;;;;;;16.17;3.63;;;16.10;99.90;;;;;;5062343;28;20496;-65
2023/10/05 04:54:08;;;;;;;17.70;3.42;;;16.10;99.90;;;;;;5092872;28;20040;-65
2023/10/05 04:56:40;;;;;;;14.80;3.55;;;16.10;99.90;;;;;;5094662;28;20085;-67
2023/10/05 05:07:00;;;;;;;16.15;3.45;;;16.20;99.90;;;;;;5079038;28;20028;-67
2023/10/05 05:09:30;;;;;;;16.90;4.10;;;16.10;99.90;;;;;;5091296;28;20043;-65
2023/10/05 05:12:03;;;;;;;18.73;4.82;;;16.20;99.90;;;;;;5075725;28;20107;-65
2023/10/05 05:14:33;;;;;;;14.05;5.20;;;16.10;99.90;;;;;;5075094;28;20031;-66
2023/10/05 05:17:02;;;;;;;18.88;4.88;;;16.20;99.90;;;;;;5076401;28;20078;-65
2023/10/05 05:19:29;;;;;;;24.30;6.00;;;16.20;99.90;;;;;;5076611;28;20040;-66
2023/10/05 05:21:55;;;;;;;18.40;4.75;;;16.30;99.90;;;;;;5075303;28;20090;-65
2023/10/05 05:24:21;;;;;;;17.50;3.85;;;16.30;99.90;;;;;;5074958;28;20042;-66
2023/10/05 05:26:47;;;;;;;20.10;4.95;;;16.40;99.90;;;;;;5087626;28;20041;-65
2023/10/05 05:29:13;;;;;;;13.98;3.80;;;16.40;99.90;;;;;;5077744;28;20073;-66
2023/10/05 05:31:39;;;;;;;14.23;3.58;;;16.40;99.90;;;;;;5090304;28;20062;-65
2023/10/05 05:34:06;;;;;;;14.65;5.00;;;16.40;99.90;;;;;;5081888;28;20032;-66
2023/10/05 05:36:36;;;;;;;16.65;3.50;;;16.40;99.90;;;;;;5086574;28;20402;-66
2023/10/05 05:39:04;;;;;;;15.07;4.05;;;16.40;99.90;;;;;;5075094;28;20051;-66
2023/10/05 05:41:29;;;;;;;17.65;5.20;;;16.40;99.90;;;;;;5076105;28;20123;-66
2023/10/05 05:43:56;;;;;;;19.15;4.30;;;16.50;99.90;;;;;;5073700;28;20123;-66
2023/10/05 05:46:21;;;;;;;18.25;5.75;;;16.50;99.90;;;;;;5053196;28;20060;-66
2023/10/05 05:48:52;;;;;;;17.83;4.43;;;16.50;99.90;;;;;;5069007;28;20067;-65
2023/10/05 05:51:21;;;;;;;21.70;5.28;;;16.50;99.90;;;;;;5073849;28;20454;-68
2023/10/05 05:53:47;;;;;;;19.42;4.70;;;16.50;99.90;;;;;;5073349;28;20029;-66
2023/10/05 05:56:19;;;;;;;15.30;4.22;;;16.50;99.90;;;;;;5073724;28;20047;-66
2023/10/05 05:58:47;;;;;;;16.40;3.30;;;16.50;99.90;;;;;;5066868;28;20530;-66
2023/10/05 06:01:17;;;;;;;17.30;4.70;;;16.40;99.90;;;;;;5070739;28;20397;-66
2023/10/05 06:03:48;;;;;;;15.43;3.65;;;16.40;99.90;;;;;;5072347;28;20032;-66
2023/10/05 06:06:15;;;;;;;15.13;4.50;;;16.40;99.90;;;;;;5073367;28;20039;-66
2023/10/05 06:08:42;;;;;;;20.58;5.53;;;16.40;99.90;;;;;;5073367;28;20369;-66
2023/10/05 06:11:08;;;;;;;19.58;4.28;;;16.40;99.90;;;;;;5072278;28;20033;-67
2023/10/05 06:13:36;;;;;;;18.63;4.43;;;16.50;99.90;;;;;;5071086;28;20032;-66
2023/10/05 06:16:09;;;;;;;19.58;4.75;;;16.50;99.90;;;;;;5071936;28;20032;-66
2023/10/05 06:18:35;;;;;;;19.25;4.22;;;16.50;99.90;;;;;;5072124;28;20044;-66
2023/10/05 06:21:02;;;;;;;21.95;6.03;;;16.50;99.90;;;;;;5071194;28;20440;-66
2023/10/05 06:23:28;;;;;;;24.77;5.03;;;16.50;99.90;;;;;;5073373;28;20064;-66
2023/10/05 06:25:55;;;;;;;15.13;3.75;;;16.60;99.90;;;;;;5064552;28;20057;-66
2023/10/05 06:28:22;;;;;;;19.23;4.85;;;16.60;99.90;;;;;;5053075;28;20098;-66
2023/10/05 06:30:52;;;;;;;14.43;3.70;;;16.60;99.90;;;;;;5060476;28;20394;-67
2023/10/05 06:33:19;;;;;;;19.67;5.75;;;16.70;99.90;;;;;;5071476;28;20111;-67
2023/10/05 06:35:51;;;;;;;20.48;4.82;;;16.70;99.90;;;;;;5083645;28;20100;-67
2023/10/05 06:38:17;;;;;;;19.75;3.78;;;16.80;99.90;;;;;;5070185;28;20032;-66
2023/10/05 06:40:42;;;;;;;17.95;4.63;;;16.80;99.90;;;;;;5072285;28;20028;-67
2023/10/05 06:43:08;;;;;;;12.25;3.83;;;16.90;99.90;;;;;;5072960;28;20130;-66
2023/10/05 06:45:37;;;;;;;19.63;4.50;;;16.90;99.90;;;;;;5071556;28;20024;-66
2023/10/05 06:48:04;;;;;;;17.08;4.10;;;16.90;99.90;;;;;;5068710;28;20035;-68
2023/10/05 06:50:30;;;;;;;17.77;6.55;;;17.00;99.90;;;;;;5070472;28;20048;-66
2023/10/05 06:52:55;;;;;;;22.30;5.22;;;17.00;99.90;;;;;;5071560;28;20105;-65
2023/10/05 06:55:25;;;;;;;22.23;7.78;;;17.10;99.90;;;;;;5071165;28;20021;-67
2023/10/05 06:57:51;;;;;;;16.48;4.72;;;17.10;99.90;;;;;;5070690;28;20048;-66
2023/10/05 07:00:21;;;;;;;18.33;6.40;;;17.10;99.90;;;;;;5070589;28;20039;-66
2023/10/05 07:02:49;;;;;;;17.00;4.53;;;17.10;99.90;;;;;;5070081;28;20484;-66
2023/10/05 07:05:16;;;;;;;15.93;4.05;;;17.10;99.90;;;;;;5059276;28;20037;-65
2023/10/05 07:07:43;;;;;;;17.58;4.65;;;17.20;99.90;;;;;;5061111;28;20029;-66
2023/10/05 07:10:14;;;;;;;19.67;4.47;;;17.20;99.90;;;;;;5069877;28;20404;-66
2023/10/05 07:12:46;;;;;;;18.17;5.53;;;17.20;99.90;;;;;;5072809;28;20491;-66
2023/10/05 07:15:19;;;;;;;19.48;5.00;;;17.20;99.90;;;;;;5070590;28;20488;-66
2023/10/05 07:17:48;;;;;;;18.50;4.82;;;17.30;99.90;;;;;;5071753;28;20051;-66
2023/10/05 07:20:16;;;;;;;25.05;6.53;;;17.40;99.90;;;;;;5070900;28;20068;-66
2023/10/05 07:22:44;;;;;;;15.63;4.15;;;17.40;99.90;;;;;;5070386;28;20037;-68
2023/10/05 07:25:19;;;;;;;17.08;4.38;;;17.50;99.90;;;;;;5070076;28;20033;-65
2023/10/05 07:27:45;;;;;;;18.52;4.80;;;17.50;99.90;;;;;;5070994;28;20028;-66
2023/10/05 07:30:11;;;;;;;18.45;5.22;;;17.50;99.90;;;;;;5070883;28;20024;-65
2023/10/05 07:32:37;;;;;;;16.77;4.38;;;17.50;99.90;;;;;;5071866;28;20039;-66
2023/10/05 07:35:07;;;;;;;17.80;4.93;;;17.50;99.90;;;;;;5071148;28;20070;-66
2023/10/05 07:37:34;;;;;;;15.70;4.00;;;17.40;99.90;;;;;;5071310;28;20032;-66
2023/10/05 07:40:03;;;;;;;17.00;4.05;;;17.40;99.90;;;;;;5070870;28;20035;-65
2023/10/05 07:42:29;;;;;;;11.95;3.70;;;17.40;99.90;;;;;;5072018;28;20021;-66
2023/10/05 07:44:55;;;;;;;17.88;4.03;;;17.50;99.90;;;;;;5071981;28;20039;-66
2023/10/05 07:47:22;;;;;;;13.85;3.40;;;17.60;99.90;;;;;;5070054;28;20040;-67
2023/10/05 07:49:47;;;;;;;14.07;3.70;;;17.70;99.90;;;;;;5071888;28;20021;-67
2023/10/05 07:52:14;;;;;;;16.40;4.03;;;17.80;99.90;;;;;;5070846;28;20029;-66
2023/10/05 07:54:40;;;;;;;16.25;4.10;;;17.90;99.90;;;;;;5071722;28;20040;-66
2023/10/05 07:57:10;;;;;;;14.57;3.35;;;18.00;99.90;;;;;;5072232;28;20029;-66
2023/10/05 07:59:42;;;;;;;16.30;5.00;;;18.00;99.90;;;;;;5071747;28;20033;-66
2023/10/05 08:02:13;;;;;;;12.95;3.78;;;18.10;99.90;;;;;;5071561;28;20386;-66
2023/10/05 08:04:39;;;;;;;17.13;4.38;;;18.10;99.90;;;;;;5051796;28;20514;-66
2023/10/05 08:07:05;;;;;;;19.13;4.80;;;18.00;99.90;;;;;;5051834;28;20032;-66
2023/10/05 08:09:31;;;;;;;15.98;4.32;;;18.00;99.90;;;;;;5051565;28;20028;-65
2023/10/05 08:11:57;;;;;;;15.88;3.90;;;18.00;99.90;;;;;;5064011;28;20032;-64
2023/10/05 08:14:26;;;;;;;16.60;4.53;;;17.90;99.90;;;;;;5071727;28;20480;-64
2023/10/05 08:16:52;;;;;;;17.70;3.83;;;17.70;99.90;;;;;;5072229;28;20677;-65
2023/10/05 08:19:24;;;;;;;17.25;4.30;;;17.50;99.90;;;;;;5075710;28;20048;-64
2023/10/05 08:21:51;;;;;;;16.13;4.00;;;17.30;99.90;;;;;;5075637;28;20035;-63
2023/10/05 08:24:17;;;;;;;16.75;4.25;;;17.10;99.90;;;;;;5073623;28;20714;-64
2023/10/05 08:26:43;;;;;;;16.73;3.58;;;17.00;99.90;;;;;;5075377;28;20036;-63
2023/10/05 08:29:09;;;;;;;22.73;9.05;;;16.90;99.90;;;;;;5073805;28;20147;-64
2023/10/05 08:31:35;;;;;;;21.85;6.82;;;16.80;99.90;;;;;;5074713;28;20107;-65
2023/10/05 08:34:02;;;;;;;27.08;9.35;;;16.90;99.90;;;;;;5075010;28;20060;-65
2023/10/05 08:36:28;;;;;;;27.75;12.52;;;16.90;99.90;;;;;;5075226;28;20036;-65
2023/10/05 08:38:55;;;;;;;20.25;8.23;;;16.90;99.90;;;;;;5074883;28;20039;-65
2023/10/05 08:41:32;;;;;;;22.33;6.60;;;17.00;99.90;;;;;;5072722;28;20036;-65
2023/10/05 08:43:59;;;;;;;20.70;6.07;;;17.10;99.90;;;;;;5074704;28;20064;-65
2023/10/05 08:46:26;;;;;;;20.30;6.65;;;17.20;99.90;;;;;;5074731;28;20036;-65
2023/10/05 08:48:52;;;;;;;27.88;9.73;;;17.40;99.90;;;;;;5075174;28;20051;-65
2023/10/05 08:51:17;;;;;;;23.63;7.63;;;17.40;99.90;;;;;;5075102;28;20773;-66
2023/10/05 08:53:57;;;;;;;19.38;7.25;;;17.50;99.90;;;;;;5075300;28;20039;-65
2023/10/05 08:56:24;;;;;;;18.48;6.40;;;17.60;99.90;;;;;;5075273;28;20064;-66
2023/10/05 08:58:52;;;;;;;20.80;7.70;;;17.70;99.90;;;;;;5074791;28;20080;-66
2023/10/05 09:01:30;;;;;;;19.10;5.47;;;17.80;99.90;;;;;;5074713;28;20082;-66
2023/10/05 09:04:01;;;;;;;26.95;8.38;;;18.00;99.90;;;;;;5054673;28;20062;-67
2023/10/05 09:06:28;;;;;;;18.75;4.78;;;18.10;99.90;;;;;;5072277;28;20033;-66
2023/10/05 09:11:32;;;;;;;19.63;5.97;;;18.30;99.90;;;;;;5074690;28;20086;-66
2023/10/05 09:14:23;;;;;;;21.77;5.05;;;18.30;99.90;;;;;;5074545;28;20051;-66
2023/10/05 09:16:55;;;;;;;14.68;4.38;;;18.30;99.90;;;;;;5073911;28;20460;-66
2023/10/05 09:19:26;;;;;;;18.05;5.10;;;18.40;99.90;;;;;;5073969;28;20480;-66
2023/10/05 09:21:59;;;;;;;17.92;4.40;;;18.50;99.90;;;;;;5074649;28;20483;-66
2023/10/05 09:24:25;;;;;;;19.73;4.78;;;18.60;99.90;;;;;;5074268;28;20036;-66
2023/10/05 09:26:56;;;;;;;19.08;5.18;;;18.60;99.90;;;;;;5074471;28;20107;-66
2023/10/05 09:29:28;;;;;;;13.23;3.63;;;18.70;99.90;;;;;;5072429;28;20028;-66
2023/10/05 09:31:54;;;;;;;;;;;18.80;99.90;;;;;;5074330;28;20055;-66
2023/10/05 09:34:37;;;;;;;20.38;5.32;;;18.90;99.90;;;;;;5074035;28;19957;-66
2023/10/05 09:37:07;;;;;;;19.10;5.53;;;19.00;99.90;;;;;;5073231;28;20024;-66
2023/10/05 09:39:46;;;;;;;18.65;4.15;;;19.10;99.90;;;;;;5073480;28;20036;-68
2023/10/05 09:42:27;;;;;;;19.73;4.80;;;19.30;99.90;;;;;;5073696;28;20491;-66
2023/10/05 09:44:57;;;;;;;16.43;3.87;;;19.60;99.90;;;;;;5074111;28;20453;-66
2023/10/05 09:47:25;;;;;;;15.40;4.20;;;19.80;99.90;;;;;;5073786;28;20025;-66
2023/10/05 09:49:56;;;;;;;15.88;3.60;;;20.00;99.90;;;;;;5073681;28;20024;-66
2023/10/05 09:52:34;;;;;;;14.43;4.18;;;20.20;99.90;;;;;;5073943;28;20119;-66
2023/10/05 09:55:04;;;;;;;14.80;4.03;;;20.40;99.90;;;;;;5072550;28;20044;-66
2023/10/05 09:57:35;;;;;;;13.95;3.60;;;20.60;99.90;;;;;;5073575;28;20037;-66
2023/10/05 10:00:08;;;;;;;11.35;3.42;;;20.80;99.90;;;;;;5073490;28;20032;-66
2023/10/05 10:02:38;;;;;;;14.07;4.00;;;21.00;99.90;;;;;;5073810;28;20036;-66
2023/10/05 10:05:26;;;;;;;11.18;3.30;;;21.20;99.90;;;;;;5073562;28;20029;-66
2023/10/05 10:07:55;;;;;;;18.13;3.70;;;21.30;99.90;;;;;;5073263;28;20025;-67
2023/10/05 10:10:24;;;;;;;13.95;3.35;;;21.30;99.90;;;;;;5072955;28;20054;-66
2023/10/05 10:12:52;;;;;;;13.50;3.20;;;21.20;99.90;;;;;;5072665;28;20031;-66
2023/10/05 10:15:33;;;;;;;17.13;4.57;;;21.10;99.90;;;;;;5073053;28;20028;-66
2023/10/05 10:18:14;;;;;;;16.02;3.47;;;21.10;99.90;;;;;;5073438;28;20040;-66
2023/10/05 10:20:45;;;;;;;15.73;3.13;;;21.20;99.90;;;;;;5073170;28;20081;-66
2023/10/05 10:23:14;;;;;;;21.20;5.10;;;21.20;99.90;;;;;;5073297;28;20170;-67
2023/10/05 10:25:41;;;;;;;19.08;6.38;;;21.30;99.90;;;;;;5073087;28;20105;-66
2023/10/05 10:28:16;;;;;;;14.93;3.55;;;21.50;99.90;;;;;;5072669;28;20033;-66
2023/10/05 10:30:47;;;;;;;19.05;4.80;;;21.60;99.90;;;;;;5073062;28;20037;-67
2023/10/05 10:33:28;;;;;;;12.05;3.58;;;21.70;99.90;;;;;;5073177;28;20028;-67
2023/10/05 10:35:55;;;;;;;15.85;3.35;;;22.00;99.90;;;;;;5072775;28;20380;-67
2023/10/05 10:38:23;;;;;;;9.68;3.13;;;22.00;99.90;;;;;;5072078;28;20700;-67
2023/10/05 10:41:15;;;;;;;16.88;4.03;;;22.30;99.90;;;;;;5071577;28;20052;-66
2023/10/05 10:43:49;;;;;;;12.98;3.13;;;22.80;99.90;;;;;;5072931;28;20028;-67
2023/10/05 10:46:29;;;;;;;12.98;2.95;;;23.10;99.90;;;;;;5072432;28;20026;-66
2023/10/05 10:48:59;;;;;;;12.38;3.30;;;23.10;99.90;;;;;;5072472;28;20115;-66
2023/10/05 10:51:32;;;;;;;16.50;3.63;;;23.20;99.90;;;;;;5072862;28;20056;-67
2023/10/05 10:54:08;;;;;;;11.57;3.15;;;23.20;99.90;;;;;;5072847;28;20028;-66
2023/10/05 10:56:42;;;;;;;10.98;3.13;;;23.40;99.90;;;;;;5072638;28;20032;-67
2023/10/05 10:59:10;;;;;;;13.13;3.55;;;23.40;99.90;;;;;;5072170;28;20032;-66
2023/10/05 11:01:52;;;;;;;19.05;5.95;;;23.20;99.90;;;;;;5072173;28;20396;-67
2023/10/05 11:04:25;;;;;;;18.70;5.60;;;23.00;99.90;;;;;;5072533;28;20357;-66
2023/10/05 11:06:56;;;;;;;12.68;3.70;;;22.80;99.90;;;;;;5072751;28;20122;-67
2023/10/05 11:09:30;;;;;;;17.15;5.22;;;22.60;99.90;;;;;;5072182;28;20028;-66
2023/10/05 11:12:08;;;;;;;12.00;3.22;;;22.50;99.90;;;;;;5072382;28;20127;-67
2023/10/05 11:14:35;;;;;;;12.10;3.03;;;22.70;99.90;;;;;;5072693;28;20028;-67
2023/10/05 11:17:00;;;;;;;13.07;3.13;;;23.20;99.90;;;;;;5072092;28;20169;-67
2023/10/05 11:19:39;;;;;;;14.00;3.10;;;23.90;99.90;;;;;;5072303;28;20539;-67
2023/10/05 11:22:07;;;;;;;15.38;4.00;;;24.70;99.90;;;;;;5072159;28;20471;-67
2023/10/05 11:24:40;;;;;;;13.75;3.00;;;25.30;99.90;;;;;;5072406;28;20025;-66
2023/10/05 11:27:14;;;;;;;11.23;2.80;;;25.80;99.40;;;;;;5072354;28;20060;-65
2023/10/05 11:29:47;;;;;;;10.57;2.60;;;25.80;99.00;;;;;;5072225;28;20028;-65
2023/10/05 11:32:19;;;;;;;9.80;2.55;;;25.90;99.00;;;;;;5072129;28;20029;-65
2023/10/05 11:34:46;;;;;;;7.68;2.30;;;25.80;98.40;;;;;;5071957;28;20033;-66
2023/10/05 11:37:18;;;;;;;12.50;2.63;;;25.40;98.70;;;;;;5072290;28;20353;-67
2023/10/05 11:39:49;;;;;;;13.32;3.10;;;24.90;99.30;;;;;;5070796;28;20068;-65
2023/10/05 11:42:24;;;;;;;15.10;3.38;;;24.50;99.90;;;;;;5072143;28;20261;-66
2023/10/05 11:45:04;;;;;;;11.10;2.70;;;24.40;99.90;;;;;;5072384;28;20056;-66
2023/10/05 11:47:35;;;;;;;12.98;2.88;;;24.70;99.90;;;;;;5072342;28;20028;-66
2023/10/05 11:50:32;;;;;;;15.02;2.83;;;24.50;99.90;;;;;;5071404;28;20048;-66
2023/10/05 11:52:59;;;;;;;12.27;2.67;;;24.70;99.50;;;;;;5074489;28;20028;-66
2023/10/05 11:55:25;;;;;;;13.95;3.10;;;25.00;99.50;;;;;;5075849;28;20445;-66
2023/10/05 11:57:52;;;;;;;15.07;2.95;;;25.10;99.20;;;;;;5075989;28;20060;-66
2023/10/05 12:00:18;;;;;;;10.00;2.97;;;24.90;99.10;;;;;;5075864;28;20036;-66
2023/10/05 12:02:44;;;;;;;11.57;2.83;;;24.60;99.50;;;;;;5075420;28;20436;-66
2023/10/05 12:05:12;;;;;;;15.07;2.58;;;24.60;99.30;;;;;;5075601;28;20025;-67
2023/10/05 12:07:41;;;;;;;12.35;3.75;;;24.40;99.50;;;;;;5075198;28;20037;-66
2023/10/05 12:10:09;;;;;;;13.75;4.35;;;24.10;99.90;;;;;;5075816;28;20052;-66
2023/10/05 12:12:44;;;;;;;10.82;2.63;;;23.70;99.90;;;;;;5077914;28;20078;-66
2023/10/05 12:15:13;;;;;;;10.15;2.58;;;23.80;99.90;;;;;;5074035;28;20025;-66
2023/10/05 12:17:44;;;;;;;15.07;3.40;;;24.00;99.90;;;;;;5088540;28;20081;-66
2023/10/05 12:20:14;;;;;;;11.13;2.63;;;24.50;99.90;;;;;;5094798;28;20422;-66
2023/10/05 12:22:40;;;;;;;14.07;3.65;;;24.50;99.50;;;;;;5076069;28;20094;-67
2023/10/05 12:25:07;;;;;;;8.82;1.95;;;24.70;99.60;;;;;;5075188;28;20032;-66
2023/10/05 12:27:36;;;;;;;9.50;2.30;;;24.90;99.20;;;;;;5075604;28;20037;-66
2023/10/05 12:30:10;;;;;;;12.40;2.67;;;24.80;99.60;;;;;;5084628;28;20047;-66
2023/10/05 12:32:37;;;;;;;9.93;2.50;;;25.10;99.50;;;;;;5090199;28;20097;-67
2023/10/05 12:35:02;;;;;;;8.23;2.15;;;25.60;98.40;;;;;;5074821;28;20028;-67
2023/10/05 12:37:29;;;;;;;8.55;2.45;;;25.80;98.00;;;;;;5075500;28;20035;-67
2023/10/05 12:39:56;;;;;;;9.80;2.20;;;25.90;97.90;;;;;;5075130;28;20028;-67
2023/10/05 12:42:21;;;;;;;13.18;2.72;;;25.50;98.20;;;;;;5074708;28;20032;-67
2023/10/05 12:44:47;;;;;;;13.02;2.58;;;25.40;98.00;;;;;;5075052;28;20025;-65
2023/10/05 12:47:13;;;;;;;10.82;2.97;;;25.30;98.00;;;;;;5075203;28;20111;-67
2023/10/05 12:49:39;;;;;;;10.27;2.33;;;25.20;98.40;;;;;;5075260;28;20350;-65
2023/10/05 12:52:05;;;;;;;13.73;2.85;;;24.90;98.60;;;;;;5074323;28;20049;-66
2023/10/05 12:54:34;;;;;;;11.57;2.20;;;24.60;99.30;;;;;;5074908;28;20035;-66
2023/10/05 12:57:09;;;;;;;10.27;1.95;;;24.30;99.60;;;;;;5074877;28;20032;-67
2023/10/05 12:59:35;;;;;;;11.10;2.40;;;23.90;99.90;;;;;;5074441;28;20502;-67
2023/10/05 13:02:13;;;;;;;11.60;2.42;;;23.60;99.90;;;;;;5074435;28;20103;-66
2023/10/05 13:04:38;;;;;;;9.10;2.47;;;23.50;99.90;;;;;;5073844;28;20090;-66
2023/10/05 13:07:04;;;;;;;11.13;2.53;;;23.30;99.90;;;;;;5074667;28;20472;-66
2023/10/05 13:09:32;;;;;;;13.80;2.95;;;23.10;99.90;;;;;;5074999;28;20036;-68
2023/10/05 13:11:58;;;;;;;8.90;2.60;;;22.90;99.90;;;;;;5074788;28;20461;-68
2023/10/05 13:14:24;;;;;;;11.40;2.58;;;22.60;99.90;;;;;;5074196;28;20423;-67
2023/10/05 13:16:53;;;;;;;10.45;2.40;;;22.60;99.90;;;;;;5073715;28;20032;-66
2023/10/05 13:19:19;;;;;;;12.90;2.75;;;22.50;99.90;;;;;;5074059;28;20040;-67
2023/10/05 13:21:45;;;;;;;14.77;2.80;;;22.50;99.90;;;;;;5074296;28;20039;-68